Bodega Marine Reserve, California Weather observations

Data are for 10 minute period ending at time listed.
 Day   Time   Solar   Ave.   Ave.  Ave.  Vector  Max.   Baro.   Total    
  of    of     Rad.   Air    Rel.  Wind   Wind   Wind  Press.  Precip.   
Year   Day            Temp.  Hum.  Speed  Dir.   Gust                    
2014   (PST)  Kw/m2    F      %     mph   deg.    mph    mb.     in.     
-------------------------------------------------------------------------
 303    3:10   0.00   56.4    90    6.0   278     7.7   1010.5    0.00 
 303    3:20   0.00   56.7    91    5.9   276     7.1   1010.5    0.00 
 303    3:30   0.00   56.6    92    5.5   276     6.0   1010.5    0.00 
 303    3:40   0.00   56.8    93    6.2   282     8.8   1010.5    0.00 
 303    3:50   0.00   57.4    93    5.4   291     8.3   1010.5    0.00 
 303    4:00   0.00   57.5    94    5.7   287     7.3   1010.5    0.00 
 303    4:10   0.00   57.8    94    5.7   280     7.2   1010.5    0.00 
 303    4:20   0.00   57.6    94    4.5   281     7.5   1010.2    0.00 
 303    4:30   0.00   57.5    94    3.3   288     5.8   1010.2    0.00 
 303    4:40   0.00   57.2    94    1.9   305     4.1   1010.2    0.00 
 303    4:50   0.00   57.3    94    3.2   284     4.6   1010.2    0.00 
 303    5:00   0.00   57.3    93    2.8   292     4.1   1010.2    0.00 
 303    5:10   0.00   57.3    93    3.5   297     4.7   1010.2    0.00 
 303    5:20   0.00   56.8    92    2.2   312     3.9   1010.2    0.00 
 303    5:30   0.00   56.6    92    0.3   336     1.2   1010.2    0.00 
 303    5:40   0.00   56.6    92    1.0   305     2.7   1010.2    0.00 
 303    5:50   0.00   55.9    92    3.8   288     5.2   1010.2    0.00 
 303    6:00   0.00   56.0    91    4.3   288     5.4   1010.2    0.00 
 303    6:10   0.00   55.5    92    4.6   284     6.7   1010.5    0.00 
 303    6:20   0.00   56.3    93    6.3   285     8.7   1010.5    0.00 
 303    6:30   0.00   56.5    94    5.8   294     6.8   1010.5    0.00 
 303    6:40   0.01   56.9    94    5.2   291     6.5   1010.5    0.00 
 303    6:50   0.01   56.7    94    2.8   313     4.7   1010.5    0.00 
 303    7:00   0.01   56.6    94    1.5     8     2.7   1010.5    0.00 
 303    7:10   0.02   56.1    94    0.3    32     1.5   1010.2    0.00 
 303    7:20   0.03   56.4    95    0.9   203     2.0   1010.5    0.00 
 303    7:30   0.04   56.7    94    0.8   188     1.9   1010.5    0.00 
 303    7:40   0.05   55.4    94    0.3   175     1.0   1010.5    0.00 
 303    7:50   0.11   56.3    96    1.1   134     3.1   1010.5    0.00 
 303    8:00   0.18   58.6    95    3.1   140     4.5   1010.8    0.00 
 303    8:10   0.18   59.7    94    2.3   143     4.2   1010.8    0.00 
 303    8:20   0.12   59.7    91    2.6   143     4.9   1010.8    0.00 
 303    8:30   0.12   59.8    89    2.7   144     4.2   1010.8    0.00 
 303    8:40   0.19   60.1    87    4.4   128     6.9   1010.5    0.00 
 303    8:50   0.32   60.9    86    6.5   145     8.6   1010.5    0.00 
 303    9:00   0.27   61.5    84    3.1   135     5.4   1010.5    0.00 
 303    9:10   0.38   62.2    83    3.9   137     5.8   1010.5    0.00 
 303    9:20   0.28   64.3    78    2.3   144     3.9   1010.8    0.00 
 303    9:30   0.21   63.7    78    2.5   242     6.1   1010.8    0.00 
 303    9:40   0.23   61.4    86    4.3   282     6.4   1010.8    0.00 
 303    9:50   0.35   61.1    89    3.9   272     7.1   1010.8    0.00 
 303   10:00   0.22   61.4    88    4.5   276     6.0   1010.8    0.00 
 303   10:10   0.24   61.4    87    3.9   267     5.1   1010.8    0.00 
 303   10:20   0.28   61.9    85    5.2   275     6.5   1010.8    0.00 
 303   10:30   0.31   62.1    83    4.1   278     5.8   1010.8    0.00 
 303   10:40   0.41   62.8    82    4.8   284     6.7   1010.8    0.00 
 303   10:50   0.37   63.0    82    4.2   288     6.6   1011.2    0.00 
 303   11:00   0.24   62.6    83    5.5   266     7.3   1011.2    0.00 
 303   11:10   0.32   62.3    85    3.2   276     4.8   1011.2    0.00 
 303   11:20   0.28   62.7    84    3.0   274     4.3   1011.2    0.00 
 303   11:30   0.28   63.2    82    2.4   273     5.8   1011.2    0.00 
 303   11:40   0.24   62.9    83    4.9   269     7.2   1011.2    0.00 
 303   11:50   0.31   62.6    84    5.5   262     7.2   1010.8    0.00 
 303   12:00   0.29   62.7    83    4.2   288     5.6   1010.8    0.00 
 303   12:10   0.43   63.5    79    3.2   282     5.1   1010.8    0.00 
 303   12:20   0.53   65.0    76    4.6   264     6.8   1010.8    0.00 
 303   12:30   0.67   65.0    78    5.0   274     8.3   1010.8    0.00 
 303   12:40   0.61   64.6    79    7.0   263     8.8   1010.8    0.00 
 303   12:50   0.57   64.6    80    5.9   277     7.7   1010.5    0.00 
 303   13:00   0.59   65.3    77    2.8   308     5.9   1010.2    0.00 
 303   13:10   0.58   68.1    68    1.3    95     5.6   1010.2    0.00 
 303   13:20   0.43   68.0    69    3.0   132     5.4   1010.2    0.00 
 303   13:30   0.19   65.2    76    4.2   130     6.4   1009.8    0.00 
 303   13:40   0.22   64.5    80    4.4   133     6.4   1009.8    0.00 
 303   13:50   0.24   63.4    84    4.9   120     7.2   1009.8    0.00 
 303   14:00   0.18   62.8    85    5.2   132     7.1   1009.5    0.00 
 303   14:10   0.17   62.3    88    7.7   171    11.2   1009.8    0.00 
 303   14:20   0.14   62.3    86    8.7   233    11.8   1009.8    0.00 
 303   14:30   0.27   62.4    87    6.8   248    10.1   1009.5    0.00 
 303   14:40   0.22   63.1    85    8.1   269    11.8   1009.5    0.00 
 303   14:50   0.14   62.7    86    9.3   288    14.4   1009.5    0.00 
 303   15:00   0.10   62.6    88   11.6   309    15.6   1009.5    0.00 
 303   15:10   0.06   61.6    90    7.6   323    13.4   1009.5    0.00 
 303   15:20   0.10   61.1    92    6.8   320     9.1   1009.1    0.00 
 303   15:30   0.09   61.1    92    6.5   328     9.5   1009.1    0.00 
 303   15:40   0.08   60.9    93    5.5   328     8.3   1009.1    0.00 
 303   15:50   0.10   60.9    94    4.2   316     6.0   1009.1    0.00 
 303   16:00   0.06   60.8    94    3.7   291     5.4   1009.5    0.00 
 303   16:10   0.06   60.7    94    2.6   267     4.6   1009.5    0.00 
 303   16:20   0.05   60.7    94    3.8   261     5.0   1009.5    0.00 
 303   16:30   0.03   60.5    94    3.5   274     5.0   1009.5    0.00 
 303   16:40   0.02   60.4    95    3.3   286     5.8   1009.1    0.00 
 303   16:50   0.02   60.2    95    3.3   300     4.4   1009.1    0.00 
 303   17:00   0.01   60.1    95    2.7   285     4.4   1009.1    0.00 
 303   17:10   0.01   60.1    95    2.1   283     3.3   1009.1    0.00 
 303   17:20   0.01   60.0    95    3.2   288     4.6   1008.8    0.00 
 303   17:30   0.01   60.1    95    3.8   297     5.1   1008.8    0.00 
 303   17:40   0.01   60.1    95    3.0   277     4.5   1008.8    0.00 
 303   17:50   0.01   60.1    95    2.0   275     3.4   1008.8    0.00 
 303   18:00   0.01   60.1    95    2.1   273     3.9   1008.8    0.00 
 303   18:10   0.01   60.0    95    2.9   273     4.5   1008.8    0.00 
 303   18:20   0.01   59.8    95    2.0   286     3.1   1008.8    0.00 
 303   18:30   0.01   59.7    96    2.9   285     5.1   1008.8    0.00 
 303   18:40   0.01   59.7    96    2.2   311     4.4   1009.1    0.00 
 303   18:50   0.01   59.8    96    1.6   294     2.5   1009.1    0.00 
 303   19:00   0.01   59.7    96    1.4   294     2.1   1009.1    0.00 
 303   19:10   0.01   59.7    96    0.6   258     3.0   1009.1    0.00 
 303   19:20   0.01   59.9    96    3.0   234     4.5   1009.1    0.00 
 303   19:30   0.01   60.2    96    3.3   225     4.5   1008.8    0.00 
 303   19:40   0.01   60.3    96    2.5   226     4.2   1009.1    0.00 
 303   19:50   0.01   60.5    96    4.8   210     7.1   1009.1    0.00 
 303   20:00   0.01   60.5    96    5.0   200     7.2   1009.1    0.00 
 303   20:10   0.01   60.6    96    4.3   189     7.5   1008.8    0.00 
 303   20:20   0.01   60.6    96    4.5   185     7.8   1009.1    0.00 
 303   20:30   0.01   60.6    96    4.9   189     8.4   1009.1    0.00 
 303   20:40   0.01   60.6    96    4.3   188     6.9   1009.1    0.00 
 303   20:50   0.01   60.6    96    4.1   183     7.6   1009.5    0.00 
 303   21:00   0.01   60.6    96    4.2   188     6.1   1009.5    0.00 
 303   21:10   0.01   60.6    96    4.5   192     7.2   1009.5    0.00 
 303   21:20   0.01   60.6    96    3.8   188     6.1   1009.5    0.00 
 303   21:30   0.01   60.6    96    3.2   175     6.0   1009.8    0.00 
 303   21:40   0.01   60.7    96    3.7   174     5.9   1009.8    0.00 
 303   21:50   0.01   60.7    96    4.6   185     7.7   1009.8    0.00 
 303   22:00   0.01   60.7    96    4.6   171     7.0   1009.8    0.00 
 303   22:10   0.01   60.6    96    5.2   172     8.6   1009.5    0.00 
 303   22:20   0.01   60.5    96    5.1   180     8.0   1009.8    0.00 
 303   22:30   0.01   60.5    96    4.3   171     6.1   1009.8    0.00 
 303   22:40   0.01   60.5    96    4.3   165     6.6   1009.5    0.00 
 303   22:50   0.00   60.4    96    4.4   163     6.8   1009.5    0.00 
 303   23:00   0.00   60.2    96    5.3   165     7.3   1009.1    0.00 
 303   23:10   0.00   60.0    96    5.8   164     8.5   1009.1    0.00 
 303   23:20   0.00   60.0    96    4.9   162     7.6   1009.1    0.00 
 303   23:30   0.00   60.1    96    5.0   171     7.2   1009.1    0.00 
 303   23:40   0.00   60.0    96    4.6   183     7.6   1009.1    0.00 
 303   23:50   0.00   60.0    96    5.4   173     7.9   1009.1    0.00 
 304    0:00   0.00   60.0    96    4.7   168     6.9   1009.1    0.00 
 304    0:10   0.00   59.9    97    4.2   158     7.3   1009.1    0.00 
 304    0:20   0.00   59.9    97    5.1   148     7.6   1008.8    0.00 
 304    0:30   0.00   60.0    97    6.1   150     8.3   1008.8    0.00 
 304    0:40   0.00   59.9    97    6.0   161    12.1   1009.1    0.00 
 304    0:50   0.00   59.9    97    7.2   160    11.8   1009.1    0.00 
 304    1:00   0.00   60.0    97    6.0   162     8.6   1009.1    0.00 
 304    1:10   0.00   60.0    97    6.8   161    11.1   1009.1    0.00 
 304    1:20   0.00   60.0    97    8.3   155    11.5   1008.8    0.00 
 304    1:30   0.00   60.0    97    8.6   151    12.0   1008.8    0.00 
 304    1:40   0.00   60.1    97    8.0   148    11.5   1008.8    0.00 
 304    1:50   0.00   60.0    96    9.2   142    12.3   1008.5    0.00 
 304    2:00   0.00   60.0    96    9.3   151    12.9   1008.8    0.00 
 304    2:10   0.00   59.9    96    8.8   144    10.9   1008.5    0.00 
 304    2:20   0.00   59.9    96    9.6   149    13.6   1008.8    0.00 
 304    2:30   0.00   60.0    96   10.3   150    14.8   1008.8    0.00 
 304    2:40   0.00   59.9    96   11.2   143    15.3   1008.5    0.00 
 304    2:50   0.00   59.8    96   12.1   140    16.2   1008.1    0.00 
 304    3:00   0.00   59.6    96   10.8   124    16.8   1007.1    0.00 

Return to Bodega Marine Reserve graphs page.


Western Regional Climate Center,wrcc@dri.edu